KSLB/SLB METAR and TAF weather

Enter ICAO airport designator
Station Type Date Time Source
KSLB METAR 2022/12/01 01:15 UTC NOAA

KSLB 010115Z AUTO 28004KT 10SM CLR M12/M15 A3030 RMK AO2


Station Type Date Time Source
KSLB Decoded METAR 2022/12/01 01:15 UTC NOAA

Storm Lake, IA, United States (KSLB) 42-36N 095-14W
Nov 30, 2022 - 08:15 PM EST / 2022.12.01 0115 UTC
Wind: from the W (280 degrees) at 5 MPH (4 KT):0
Visibility: 10 mile(s):0
Sky conditions: clear
Temperature: 10 F (-12 C)
Windchill: 1 F (-17 C):1
Dew Point: 5 F (-15 C)
Relative Humidity: 78%
Pressure (altimeter): 30.3 in. Hg (1026 hPa)
ob: KSLB 010115Z AUTO 28004KT 10SM CLR M12/M15 A3030 RMK AO2
cycle: 1

Station Type Date Time Source
KSLB TAF UTC NOAA

Error!

Example: see airport list